sensor_id;sensor_type;location;lat;lon;timestamp;pressure;altitude;pressure_sealevel;temperature;humidity
36234;BME280;43467;50.890;5.982;2023-04-06T18:34:35;99994.81;;;10.20;83.89
36234;BME280;43467;50.890;5.982;2023-04-06T18:37:01;100008.59;;;10.08;84.20
36234;BME280;43467;50.890;5.982;2023-04-06T18:39:26;100012.81;;;10.12;83.82
36234;BME280;43467;50.890;5.982;2023-04-06T18:41:53;100000.38;;;10.14;83.52
36234;BME280;43467;50.890;5.982;2023-04-06T18:44:19;100010.97;;;10.14;84.10
36234;BME280;43467;50.890;5.982;2023-04-06T18:46:45;99997.09;;;10.09;84.07
36234;BME280;43467;50.890;5.982;2023-04-06T18:49:10;100002.53;;;10.06;83.90
36234;BME280;43467;50.890;5.982;2023-04-06T18:51:36;100005.03;;;10.09;83.79
36234;BME280;43467;50.890;5.982;2023-04-06T18:54:02;100003.81;;;10.16;83.64
36234;BME280;43467;50.890;5.982;2023-04-06T18:56:28;100006.19;;;10.22;82.73
36234;BME280;43467;50.890;5.982;2023-04-06T18:58:53;100006.03;;;10.25;83.05
36234;BME280;43467;50.890;5.982;2023-04-06T19:03:45;100009.88;;;10.37;82.08
36234;BME280;43467;50.890;5.982;2023-04-06T19:06:10;100001.44;;;10.29;81.79
36234;BME280;43467;50.890;5.982;2023-04-06T19:08:36;100004.31;;;10.43;81.81
36234;BME280;43467;50.890;5.982;2023-04-06T19:11:05;100007.00;;;10.41;81.20
36234;BME280;43467;50.890;5.982;2023-04-06T19:13:37;100017.16;;;10.50;80.96
36234;BME280;43467;50.890;5.982;2023-04-06T19:16:10;100004.84;;;10.49;81.12
36234;BME280;43467;50.890;5.982;2023-04-06T19:18:36;100010.47;;;10.43;80.96
36234;BME280;43467;50.890;5.982;2023-04-06T19:21:30;100006.59;;;10.32;81.87
36234;BME280;43467;50.890;5.982;2023-04-06T19:23:56;100011.34;;;10.25;81.03
36234;BME280;43467;50.890;5.982;2023-04-06T19:26:23;100005.03;;;10.27;81.49
36234;BME280;43467;50.890;5.982;2023-04-06T19:28:49;100010.19;;;10.31;81.60
36234;BME280;43467;50.890;5.982;2023-04-06T19:31:16;100006.47;;;10.16;81.51
36234;BME280;43467;50.890;5.982;2023-04-06T19:33:42;100005.88;;;10.28;81.63
36234;BME280;43467;50.890;5.982;2023-04-06T19:36:09;100008.38;;;10.31;81.22
36234;BME280;43467;50.890;5.982;2023-04-06T19:38:35;100002.31;;;10.29;81.15
36234;BME280;43467;50.890;5.982;2023-04-06T19:41:00;100004.03;;;10.30;81.02
36234;BME280;43467;50.890;5.982;2023-04-06T19:43:26;100002.38;;;10.27;81.12
36234;BME280;43467;50.890;5.982;2023-04-06T19:45:52;100005.72;;;10.31;81.42
36234;BME280;43467;50.890;5.982;2023-04-06T19:48:17;100002.31;;;10.29;80.85
36234;BME280;43467;50.890;5.982;2023-04-06T19:50:43;100005.88;;;10.28;80.91
36234;BME280;43467;50.890;5.982;2023-04-06T19:53:09;100009.56;;;10.25;81.94
36234;BME280;43467;50.890;5.982;2023-04-06T19:55:35;100008.97;;;10.19;81.96
36234;BME280;43467;50.890;5.982;2023-04-06T19:58:02;100007.13;;;10.21;81.93
36234;BME280;43467;50.890;5.982;2023-04-06T20:00:28;100008.91;;;10.20;81.59
36234;BME280;43467;50.890;5.982;2023-04-06T20:02:53;100006.75;;;10.29;81.45
36234;BME280;43467;50.890;5.982;2023-04-06T20:05:19;100007.31;;;10.35;81.41
36234;BME280;43467;50.890;5.982;2023-04-06T20:07:44;100007.38;;;10.34;81.71
36234;BME280;43467;50.890;5.982;2023-04-06T20:10:11;99997.78;;;10.31;81.82
36234;BME280;43467;50.890;5.982;2023-04-06T20:12:39;100017.81;;;10.37;81.88
36234;BME280;43467;50.890;5.982;2023-04-06T20:15:05;100014.41;;;10.35;81.82
36234;BME280;43467;50.890;5.982;2023-04-06T20:17:31;100007.53;;;10.31;82.14
36234;BME280;43467;50.890;5.982;2023-04-06T20:19:56;100019.91;;;10.30;82.10
36234;BME280;43467;50.890;5.982;2023-04-06T20:22:22;100007.59;;;10.29;82.25
36234;BME280;43467;50.890;5.982;2023-04-06T20:24:47;100014.75;;;10.27;82.48
36234;BME280;43467;50.890;5.982;2023-04-06T20:27:13;100008.63;;;10.27;82.97
36234;BME280;43467;50.890;5.982;2023-04-06T20:29:38;100011.03;;;10.31;82.94
36234;BME280;43467;50.890;5.982;2023-04-06T20:32:04;100014.41;;;10.35;83.05
36234;BME280;43467;50.890;5.982;2023-04-06T20:34:29;100017.19;;;10.32;83.20
36234;BME280;43467;50.890;5.982;2023-04-06T20:36:56;100009.03;;;10.36;83.63
36234;BME280;43467;50.890;5.982;2023-04-06T20:39:22;100015.38;;;10.32;84.11
36234;BME280;43467;50.890;5.982;2023-04-06T20:41:50;100012.69;;;10.34;84.03
36234;BME280;43467;50.890;5.982;2023-04-06T20:44:16;100014.03;;;10.42;84.10
36234;BME280;43467;50.890;5.982;2023-04-06T20:46:42;100006.00;;;10.44;84.83
36234;BME280;43467;50.890;5.982;2023-04-06T20:49:11;100011.59;;;10.38;85.32
36234;BME280;43467;50.890;5.982;2023-04-06T20:51:36;99998.97;;;10.25;86.44
36234;BME280;43467;50.890;5.982;2023-04-06T20:54:03;100008.53;;;10.28;87.75
36234;BME280;43467;50.890;5.982;2023-04-06T20:56:28;100000.75;;;10.25;88.46
36234;BME280;43467;50.890;5.982;2023-04-06T20:58:55;99998.53;;;10.16;89.50
36234;BME280;43467;50.890;5.982;2023-04-06T21:01:21;100010.47;;;10.24;89.80
36234;BME280;43467;50.890;5.982;2023-04-06T21:03:48;100004.63;;;10.18;90.33
36234;BME280;43467;50.890;5.982;2023-04-06T21:06:13;100011.56;;;10.20;91.14
36234;BME280;43467;50.890;5.982;2023-04-06T21:08:39;100009.91;;;10.18;92.18
36234;BME280;43467;50.890;5.982;2023-04-06T21:11:04;100007.88;;;10.23;92.57
36234;BME280;43467;50.890;5.982;2023-04-06T21:13:30;100006.31;;;10.19;92.79
36234;BME280;43467;50.890;5.982;2023-04-06T21:15:56;99998.66;;;10.13;93.85
36234;BME280;43467;50.890;5.982;2023-04-06T21:18:21;99995.84;;;10.17;94.26
36234;BME280;43467;50.890;5.982;2023-04-06T21:20:47;100000.09;;;10.20;95.37
36234;BME280;43467;50.890;5.982;2023-04-06T21:23:13;99999.53;;;10.13;95.49
36234;BME280;43467;50.890;5.982;2023-04-06T21:25:38;99990.66;;;10.14;95.89
36234;BME280;43467;50.890;5.982;2023-04-06T21:28:04;99999.19;;;10.21;95.47
36234;BME280;43467;50.890;5.982;2023-04-06T21:30:29;99983.53;;;10.16;95.97
36234;BME280;43467;50.890;5.982;2023-04-06T21:33:02;100001.97;;;10.18;95.70
36234;BME280;43467;50.890;5.982;2023-04-06T21:35:27;99999.34;;;10.18;96.57
36234;BME280;43467;50.890;5.982;2023-04-06T21:37:53;99981.88;;;10.14;96.30
36234;BME280;43467;50.890;5.982;2023-04-06T21:40:18;99995.94;;;10.14;96.63
36234;BME280;43467;50.890;5.982;2023-04-06T21:42:45;100002.97;;;10.15;96.78
36234;BME280;43467;50.890;5.982;2023-04-06T21:45:10;100000.44;;;10.12;97.34
36234;BME280;43467;50.890;5.982;2023-04-06T21:47:35;99998.72;;;10.11;97.55
36234;BME280;43467;50.890;5.982;2023-04-06T21:50:01;100005.19;;;10.06;98.25
36234;BME280;43467;50.890;5.982;2023-04-06T21:52:27;99990.28;;;10.03;98.28
36234;BME280;43467;50.890;5.982;2023-04-06T21:54:52;99976.56;;;9.95;98.27
36234;BME280;43467;50.890;5.982;2023-04-06T21:57:18;100000.19;;;10.18;97.85
36234;BME280;43467;50.890;5.982;2023-04-06T21:59:43;100006.19;;;10.22;97.86
36234;BME280;43467;50.890;5.982;2023-04-06T22:02:08;99994.03;;;10.18;97.81
36234;BME280;43467;50.890;5.982;2023-04-06T22:04:34;100005.19;;;10.24;97.79
36234;BME280;43467;50.890;5.982;2023-04-06T22:06:59;100001.97;;;10.18;98.39
36234;BME280;43467;50.890;5.982;2023-04-06T22:09:25;100002.38;;;10.09;98.80
36234;BME280;43467;50.890;5.982;2023-04-06T22:11:50;100002.31;;;10.10;99.50
36234;BME280;43467;50.890;5.982;2023-04-06T22:14:16;100005.19;;;10.24;99.25
36234;BME280;43467;50.890;5.982;2023-04-06T22:16:42;99999.34;;;10.18;99.59
36234;BME280;43467;50.890;5.982;2023-04-06T22:19:08;99998.31;;;10.20;100.00
36234;BME280;43467;50.890;5.982;2023-04-06T22:21:33;100006.31;;;10.19;100.00
36234;BME280;43467;50.890;5.982;2023-04-06T22:23:58;100001.03;;;10.19;100.00
36234;BME280;43467;50.890;5.982;2023-04-06T22:26:24;100007.44;;;10.32;100.00
36234;BME280;43467;50.890;5.982;2023-04-06T22:28:50;100003.88;;;10.33;99.89
36234;BME280;43467;50.890;5.982;2023-04-06T22:31:16;100008.69;;;10.25;100.00
36234;BME280;43467;50.890;5.982;2023-04-06T22:33:41;99999.59;;;10.31;100.00
36234;BME280;43467;50.890;5.982;2023-04-06T22:36:07;100000.97;;;10.39;99.66
36234;BME280;43467;50.890;5.982;2023-04-06T22:38:32;100007.31;;;10.35;99.16
36234;BME280;43467;50.890;5.982;2023-04-06T22:40:57;100016.91;;;10.38;99.17
36234;BME280;43467;50.890;5.982;2023-04-06T22:43:23;100010.19;;;10.31;99.22
36234;BME280;43467;50.890;5.982;2023-04-06T22:45:48;100006.97;;;10.24;100.00
36234;BME280;43467;50.890;5.982;2023-04-06T22:48:14;100001.44;;;10.29;100.00
36234;BME280;43467;50.890;5.982;2023-04-06T22:50:39;99995.72;;;10.19;100.00
36234;BME280;43467;50.890;5.982;2023-04-06T22:53:04;100018.19;;;10.29;99.68
36234;BME280;43467;50.890;5.982;2023-04-06T22:55:30;100010.19;;;10.31;99.60
36234;BME280;43467;50.890;5.982;2023-04-06T22:57:56;100012.69;;;10.34;98.98
36234;BME280;43467;50.890;5.982;2023-04-06T23:00:21;100006.91;;;10.25;99.82
36234;BME280;43467;50.890;5.982;2023-04-06T23:02:47;100014.31;;;10.36;99.31
36234;BME280;43467;50.890;5.982;2023-04-06T23:05:12;100018.19;;;10.29;99.14
36234;BME280;43467;50.890;5.982;2023-04-06T23:07:37;100013.31;;;10.39;98.34
36234;BME280;43467;50.890;5.982;2023-04-06T23:10:03;99987.16;;;10.33;98.31
36234;BME280;43467;50.890;5.982;2023-04-06T23:12:29;100017.22;;;10.49;98.04
36234;BME280;43467;50.890;5.982;2023-04-06T23:14:55;100015.81;;;10.42;98.61
36234;BME280;43467;50.890;5.982;2023-04-06T23:17:20;100011.59;;;10.38;99.32
36234;BME280;43467;50.890;5.982;2023-04-06T23:19:46;100022.25;;;10.36;99.51
36234;BME280;43467;50.890;5.982;2023-04-06T23:22:11;100024.91;;;10.36;100.00
36234;BME280;43467;50.890;5.982;2023-04-06T23:24:37;100024.47;;;10.45;99.40
36234;BME280;43467;50.890;5.982;2023-04-06T23:27:03;100024.63;;;10.42;99.48
36234;BME280;43467;50.890;5.982;2023-04-06T23:29:28;100027.09;;;10.45;99.14
36234;BME280;43467;50.890;5.982;2023-04-06T23:31:54;100036.72;;;10.29;99.86
36234;BME280;43467;50.890;5.982;2023-04-06T23:34:19;100033.06;;;10.32;100.00
36234;BME280;43467;50.890;5.982;2023-04-06T23:36:45;100032.50;;;10.25;100.00
36234;BME280;43467;50.890;5.982;2023-04-06T23:39:10;100030.50;;;10.30;100.00
36234;BME280;43467;50.890;5.982;2023-04-06T23:41:36;100037.75;;;10.44;99.35
36234;BME280;43467;50.890;5.982;2023-04-06T23:44:01;100041.84;;;10.32;99.76
36234;BME280;43467;50.890;5.982;2023-04-06T23:46:27;100040.06;;;10.33;99.66
36234;BME280;43467;50.890;5.982;2023-04-06T23:48:52;100035.00;;;10.28;99.61
36234;BME280;43467;50.890;5.982;2023-04-06T23:51:17;100042.94;;;10.28;99.78
36234;BME280;43467;50.890;5.982;2023-04-06T23:53:43;100042.28;;;10.23;100.00
36234;BME280;43467;50.890;5.982;2023-04-06T23:56:10;100035.63;;;10.33;99.77
36234;BME280;43467;50.890;5.982;2023-04-06T23:58:35;100039.78;;;10.39;99.37
